sensor_id;sensor_type;location;lat;lon;timestamp;temperature;humidity
1329;DHT22;658;48.820;9.354;2023-04-04T00:00:30;22.10;37.70
1329;DHT22;658;48.820;9.354;2023-04-04T00:04:31;22.10;37.60
1329;DHT22;658;48.820;9.354;2023-04-04T00:08:31;22.10;37.70
1329;DHT22;658;48.820;9.354;2023-04-04T00:12:32;22.10;37.70
1329;DHT22;658;48.820;9.354;2023-04-04T00:16:33;22.10;37.60
1329;DHT22;658;48.820;9.354;2023-04-04T00:20:36;22.10;37.60
1329;DHT22;658;48.820;9.354;2023-04-04T00:24:39;22.20;37.70
1329;DHT22;658;48.820;9.354;2023-04-04T00:28:40;22.20;37.60
1329;DHT22;658;48.820;9.354;2023-04-04T00:32:40;22.10;37.50
1329;DHT22;658;48.820;9.354;2023-04-04T00:36:41;22.10;37.40
1329;DHT22;658;48.820;9.354;2023-04-04T00:40:47;22.20;37.50
1329;DHT22;658;48.820;9.354;2023-04-04T00:44:50;22.10;37.40
1329;DHT22;658;48.820;9.354;2023-04-04T00:48:53;22.10;37.30
1329;DHT22;658;48.820;9.354;2023-04-04T00:52:54;22.20;37.40
1329;DHT22;658;48.820;9.354;2023-04-04T00:56:55;22.10;37.30
1329;DHT22;658;48.820;9.354;2023-04-04T01:00:59;22.10;37.30
1329;DHT22;658;48.820;9.354;2023-04-04T01:05:04;22.10;37.20
1329;DHT22;658;48.820;9.354;2023-04-04T01:09:08;22.10;37.20
1329;DHT22;658;48.820;9.354;2023-04-04T01:13:09;22.10;37.20
1329;DHT22;658;48.820;9.354;2023-04-04T01:17:12;22.10;37.20
1329;DHT22;658;48.820;9.354;2023-04-04T01:21:14;22.10;37.10
1329;DHT22;658;48.820;9.354;2023-04-04T01:25:17;22.10;37.10
1329;DHT22;658;48.820;9.354;2023-04-04T01:29:18;22.10;37.00
1329;DHT22;658;48.820;9.354;2023-04-04T01:33:27;22.10;37.00
1329;DHT22;658;48.820;9.354;2023-04-04T01:37:35;22.10;37.10
1329;DHT22;658;48.820;9.354;2023-04-04T01:41:38;22.10;37.10
1329;DHT22;658;48.820;9.354;2023-04-04T01:45:39;22.10;37.10
1329;DHT22;658;48.820;9.354;2023-04-04T01:49:44;22.10;37.10
1329;DHT22;658;48.820;9.354;2023-04-04T01:53:47;22.10;37.00
1329;DHT22;658;48.820;9.354;2023-04-04T01:57:50;22.10;37.10
1329;DHT22;658;48.820;9.354;2023-04-04T02:01:51;22.10;37.00
1329;DHT22;658;48.820;9.354;2023-04-04T02:05:54;22.10;37.00
1329;DHT22;658;48.820;9.354;2023-04-04T02:09:57;22.10;37.00
1329;DHT22;658;48.820;9.354;2023-04-04T02:13:58;22.10;37.00
1329;DHT22;658;48.820;9.354;2023-04-04T02:17:58;22.10;37.00
1329;DHT22;658;48.820;9.354;2023-04-04T02:21:59;22.10;37.00
1329;DHT22;658;48.820;9.354;2023-04-04T02:26:02;22.10;37.00
1329;DHT22;658;48.820;9.354;2023-04-04T02:30:03;22.00;37.00
1329;DHT22;658;48.820;9.354;2023-04-04T02:34:05;22.00;37.00
1329;DHT22;658;48.820;9.354;2023-04-04T02:38:08;22.00;36.90
1329;DHT22;658;48.820;9.354;2023-04-04T02:42:11;22.00;37.00
1329;DHT22;658;48.820;9.354;2023-04-04T02:46:14;22.00;36.90
1329;DHT22;658;48.820;9.354;2023-04-04T02:50:15;22.00;37.00
1329;DHT22;658;48.820;9.354;2023-04-04T02:54:18;22.00;36.90
1329;DHT22;658;48.820;9.354;2023-04-04T02:58:21;22.00;37.00
1329;DHT22;658;48.820;9.354;2023-04-04T03:02:25;22.00;37.00
1329;DHT22;658;48.820;9.354;2023-04-04T03:06:25;22.00;37.00
1329;DHT22;658;48.820;9.354;2023-04-04T03:10:30;22.00;37.00
1329;DHT22;658;48.820;9.354;2023-04-04T03:14:31;22.00;37.10
1329;DHT22;658;48.820;9.354;2023-04-04T03:18:32;22.00;37.10
1329;DHT22;658;48.820;9.354;2023-04-04T03:22:36;22.00;37.00
1329;DHT22;658;48.820;9.354;2023-04-04T03:26:36;22.00;37.00
1329;DHT22;658;48.820;9.354;2023-04-04T03:30:40;22.00;37.00
1329;DHT22;658;48.820;9.354;2023-04-04T03:34:40;22.00;37.00
1329;DHT22;658;48.820;9.354;2023-04-04T03:38:41;22.00;37.00
1329;DHT22;658;48.820;9.354;2023-04-04T03:42:44;22.00;37.00
1329;DHT22;658;48.820;9.354;2023-04-04T03:46:45;22.00;37.00
1329;DHT22;658;48.820;9.354;2023-04-04T03:50:45;22.10;37.00
1329;DHT22;658;48.820;9.354;2023-04-04T03:54:46;22.10;37.00
1329;DHT22;658;48.820;9.354;2023-04-04T03:58:51;22.10;37.10
1329;DHT22;658;48.820;9.354;2023-04-04T04:02:55;22.10;37.00
1329;DHT22;658;48.820;9.354;2023-04-04T04:06:58;22.10;37.00
1329;DHT22;658;48.820;9.354;2023-04-04T04:11:03;22.10;37.00
1329;DHT22;658;48.820;9.354;2023-04-04T04:15:04;22.10;37.00
1329;DHT22;658;48.820;9.354;2023-04-04T04:19:07;22.10;37.00
1329;DHT22;658;48.820;9.354;2023-04-04T04:23:10;22.10;37.00
1329;DHT22;658;48.820;9.354;2023-04-04T04:27:11;22.10;37.00
1329;DHT22;658;48.820;9.354;2023-04-04T04:31:11;22.10;37.00
1329;DHT22;658;48.820;9.354;2023-04-04T04:35:12;22.10;37.00
1329;DHT22;658;48.820;9.354;2023-04-04T04:39:15;22.10;36.90
1329;DHT22;658;48.820;9.354;2023-04-04T04:43:16;22.00;36.90
1329;DHT22;658;48.820;9.354;2023-04-04T04:47:16;22.00;37.40
1329;DHT22;658;48.820;9.354;2023-04-04T04:51:17;22.10;36.90
1329;DHT22;658;48.820;9.354;2023-04-04T04:55:20;22.00;36.80
1329;DHT22;658;48.820;9.354;2023-04-04T04:59:20;22.00;36.80
1329;DHT22;658;48.820;9.354;2023-04-04T05:03:21;22.00;36.90
1329;DHT22;658;48.820;9.354;2023-04-04T05:07:22;22.00;36.90
1329;DHT22;658;48.820;9.354;2023-04-04T05:11:22;22.00;36.90
1329;DHT22;658;48.820;9.354;2023-04-04T05:15:23;22.00;36.80
1329;DHT22;658;48.820;9.354;2023-04-04T05:19:28;22.00;36.90
1329;DHT22;658;48.820;9.354;2023-04-04T05:23:29;22.00;36.90
1329;DHT22;658;48.820;9.354;2023-04-04T05:27:32;22.00;36.90
1329;DHT22;658;48.820;9.354;2023-04-04T05:31:32;22.00;36.90
1329;DHT22;658;48.820;9.354;2023-04-04T05:35:33;22.00;36.90
1329;DHT22;658;48.820;9.354;2023-04-04T05:39:33;22.00;37.10
1329;DHT22;658;48.820;9.354;2023-04-04T05:43:34;22.00;37.20
1329;DHT22;658;48.820;9.354;2023-04-04T05:47:35;22.10;37.30
1329;DHT22;658;48.820;9.354;2023-04-04T05:51:35;22.10;37.20
1329;DHT22;658;48.820;9.354;2023-04-04T05:55:36;22.10;37.10
1329;DHT22;658;48.820;9.354;2023-04-04T05:59:37;22.10;37.10
1329;DHT22;658;48.820;9.354;2023-04-04T06:03:38;22.20;37.20
1329;DHT22;658;48.820;9.354;2023-04-04T06:07:38;22.20;37.20
1329;DHT22;658;48.820;9.354;2023-04-04T06:11:39;22.20;37.20
1329;DHT22;658;48.820;9.354;2023-04-04T06:15:40;22.20;37.20
1329;DHT22;658;48.820;9.354;2023-04-04T06:19:40;22.20;37.10
1329;DHT22;658;48.820;9.354;2023-04-04T06:23:41;22.20;37.00
1329;DHT22;658;48.820;9.354;2023-04-04T06:27:41;22.20;37.10
1329;DHT22;658;48.820;9.354;2023-04-04T06:31:43;22.20;37.30
1329;DHT22;658;48.820;9.354;2023-04-04T06:35:43;22.30;37.20
1329;DHT22;658;48.820;9.354;2023-04-04T06:39:44;22.30;37.10
1329;DHT22;658;48.820;9.354;2023-04-04T06:43:45;22.40;37.10
1329;DHT22;658;48.820;9.354;2023-04-04T06:47:48;22.40;37.10
1329;DHT22;658;48.820;9.354;2023-04-04T06:51:55;22.50;37.10
1329;DHT22;658;48.820;9.354;2023-04-04T06:55:57;22.50;37.10
1329;DHT22;658;48.820;9.354;2023-04-04T06:59:58;22.50;37.10
1329;DHT22;658;48.820;9.354;2023-04-04T07:04:01;22.60;37.10
1329;DHT22;658;48.820;9.354;2023-04-04T07:08:04;22.70;37.00
1329;DHT22;658;48.820;9.354;2023-04-04T07:12:06;22.70;37.10
1329;DHT22;658;48.820;9.354;2023-04-04T07:16:09;22.70;37.00
1329;DHT22;658;48.820;9.354;2023-04-04T07:20:11;22.80;36.90
1329;DHT22;658;48.820;9.354;2023-04-04T07:24:11;22.80;36.70
1329;DHT22;658;48.820;9.354;2023-04-04T07:28:12;22.80;36.90
1329;DHT22;658;48.820;9.354;2023-04-04T07:32:13;22.90;36.90
1329;DHT22;658;48.820;9.354;2023-04-04T07:36:13;22.90;36.80
1329;DHT22;658;48.820;9.354;2023-04-04T07:40:14;22.90;36.80
1329;DHT22;658;48.820;9.354;2023-04-04T07:44:15;23.00;36.80
1329;DHT22;658;48.820;9.354;2023-04-04T07:48:18;23.00;36.80
1329;DHT22;658;48.820;9.354;2023-04-04T07:52:23;23.00;36.70
1329;DHT22;658;48.820;9.354;2023-04-04T07:56:24;23.10;36.80
1329;DHT22;658;48.820;9.354;2023-04-04T08:00:25;23.10;36.50
1329;DHT22;658;48.820;9.354;2023-04-04T08:04:26;23.10;36.70
1329;DHT22;658;48.820;9.354;2023-04-04T08:08:26;23.20;36.70
1329;DHT22;658;48.820;9.354;2023-04-04T08:12:29;23.20;36.70
1329;DHT22;658;48.820;9.354;2023-04-04T08:16:34;23.20;36.60
1329;DHT22;658;48.820;9.354;2023-04-04T08:20:35;23.20;36.60
1329;DHT22;658;48.820;9.354;2023-04-04T08:24:36;23.30;36.50
1329;DHT22;658;48.820;9.354;2023-04-04T08:28:40;23.30;36.40
1329;DHT22;658;48.820;9.354;2023-04-04T08:32:41;23.30;36.40
1329;DHT22;658;48.820;9.354;2023-04-04T08:36:43;23.30;36.40
1329;DHT22;658;48.820;9.354;2023-04-04T08:40:47;23.40;36.50
1329;DHT22;658;48.820;9.354;2023-04-04T08:44:52;23.40;36.30
1329;DHT22;658;48.820;9.354;2023-04-04T08:48:54;23.40;36.20
1329;DHT22;658;48.820;9.354;2023-04-04T08:52:56;23.40;36.20
1329;DHT22;658;48.820;9.354;2023-04-04T08:56:58;23.40;36.10
1329;DHT22;658;48.820;9.354;2023-04-04T09:01:01;23.50;36.10
1329;DHT22;658;48.820;9.354;2023-04-04T09:05:02;23.50;36.00
1329;DHT22;658;48.820;9.354;2023-04-04T09:09:03;23.50;36.00
1329;DHT22;658;48.820;9.354;2023-04-04T09:13:04;23.50;36.40
1329;DHT22;658;48.820;9.354;2023-04-04T09:17:07;23.50;35.90
1329;DHT22;658;48.820;9.354;2023-04-04T09:21:10;23.60;35.80
1329;DHT22;658;48.820;9.354;2023-04-04T09:25:15;23.60;35.80
1329;DHT22;658;48.820;9.354;2023-04-04T09:29:22;23.60;35.70
1329;DHT22;658;48.820;9.354;2023-04-04T09:33:25;23.60;35.70
1329;DHT22;658;48.820;9.354;2023-04-04T09:37:28;23.70;35.60
1329;DHT22;658;48.820;9.354;2023-04-04T09:41:29;23.70;35.60
1329;DHT22;658;48.820;9.354;2023-04-04T09:45:34;23.70;35.70
1329;DHT22;658;48.820;9.354;2023-04-04T09:49:35;23.80;35.40
1329;DHT22;658;48.820;9.354;2023-04-04T09:53:38;23.80;35.40
1329;DHT22;658;48.820;9.354;2023-04-04T09:57:41;23.80;35.40
1329;DHT22;658;48.820;9.354;2023-04-04T10:01:42;23.90;35.30
1329;DHT22;658;48.820;9.354;2023-04-04T10:05:47;23.90;35.30
1329;DHT22;658;48.820;9.354;2023-04-04T10:09:54;24.00;35.20
1329;DHT22;658;48.820;9.354;2023-04-04T10:13:56;24.00;35.20
1329;DHT22;658;48.820;9.354;2023-04-04T10:17:59;24.10;35.30
1329;DHT22;658;48.820;9.354;2023-04-04T10:22:05;24.20;35.20
1329;DHT22;658;48.820;9.354;2023-04-04T10:26:09;24.20;35.00
1329;DHT22;658;48.820;9.354;2023-04-04T10:30:12;24.30;35.00
1329;DHT22;658;48.820;9.354;2023-04-04T10:38:14;24.40;34.70
1329;DHT22;658;48.820;9.354;2023-04-04T10:42:19;24.40;34.60
1329;DHT22;658;48.820;9.354;2023-04-04T10:46:21;24.50;34.30
1329;DHT22;658;48.820;9.354;2023-04-04T10:50:29;24.50;34.20
1329;DHT22;658;48.820;9.354;2023-04-04T10:54:32;24.60;34.10
1329;DHT22;658;48.820;9.354;2023-04-04T10:58:38;24.60;34.10
1329;DHT22;658;48.820;9.354;2023-04-04T11:02:47;24.70;34.10
1329;DHT22;658;48.820;9.354;2023-04-04T11:07:09;24.70;34.20
1329;DHT22;658;48.820;9.354;2023-04-04T11:11:11;24.80;34.00
1329;DHT22;658;48.820;9.354;2023-04-04T11:15:13;24.80;33.90
1329;DHT22;658;48.820;9.354;2023-04-04T11:19:16;24.80;33.80
1329;DHT22;658;48.820;9.354;2023-04-04T11:23:18;24.90;33.80
1329;DHT22;658;48.820;9.354;2023-04-04T11:27:22;25.00;33.80
1329;DHT22;658;48.820;9.354;2023-04-04T11:31:33;25.00;33.60
1329;DHT22;658;48.820;9.354;2023-04-04T11:35:45;25.10;33.50
1329;DHT22;658;48.820;9.354;2023-04-04T11:39:47;25.20;33.30
1329;DHT22;658;48.820;9.354;2023-04-04T11:43:50;25.20;33.40
1329;DHT22;658;48.820;9.354;2023-04-04T11:47:51;25.30;33.50
1329;DHT22;658;48.820;9.354;2023-04-04T11:51:52;25.30;33.60
1329;DHT22;658;48.820;9.354;2023-04-04T11:55:55;25.30;33.80
1329;DHT22;658;48.820;9.354;2023-04-04T11:59:56;25.30;33.80
1329;DHT22;658;48.820;9.354;2023-04-04T12:03:58;25.30;33.90
1329;DHT22;658;48.820;9.354;2023-04-04T12:08:03;25.30;34.00
1329;DHT22;658;48.820;9.354;2023-04-04T12:12:05;25.30;33.80
1329;DHT22;658;48.820;9.354;2023-04-04T12:16:07;25.40;33.80
1329;DHT22;658;48.820;9.354;2023-04-04T12:20:14;25.40;33.20
1329;DHT22;658;48.820;9.354;2023-04-04T12:24:15;25.40;32.80
1329;DHT22;658;48.820;9.354;2023-04-04T12:28:18;25.40;33.10
1329;DHT22;658;48.820;9.354;2023-04-04T12:32:19;25.40;33.10
1329;DHT22;658;48.820;9.354;2023-04-04T12:36:20;25.40;33.00
1329;DHT22;658;48.820;9.354;2023-04-04T12:40:37;25.50;33.10
1329;DHT22;658;48.820;9.354;2023-04-04T12:44:38;25.50;33.00
1329;DHT22;658;48.820;9.354;2023-04-04T12:48:40;25.60;32.90
1329;DHT22;658;48.820;9.354;2023-04-04T12:52:41;25.60;32.80
1329;DHT22;658;48.820;9.354;2023-04-04T12:56:41;25.70;32.70
1329;DHT22;658;48.820;9.354;2023-04-04T13:00:44;25.70;32.60
1329;DHT22;658;48.820;9.354;2023-04-04T13:04:46;25.80;32.70
1329;DHT22;658;48.820;9.354;2023-04-04T13:08:53;25.60;29.90
1329;DHT22;658;48.820;9.354;2023-04-04T13:12:59;25.40;29.30
1329;DHT22;658;48.820;9.354;2023-04-04T13:17:05;25.20;29.10
1329;DHT22;658;48.820;9.354;2023-04-04T13:21:07;25.10;29.00
1329;DHT22;658;48.820;9.354;2023-04-04T13:25:10;25.10;28.90
1329;DHT22;658;48.820;9.354;2023-04-04T13:29:12;25.00;28.80
1329;DHT22;658;48.820;9.354;2023-04-04T13:33:14;25.00;28.60
1329;DHT22;658;48.820;9.354;2023-04-04T13:37:15;24.90;29.00
1329;DHT22;658;48.820;9.354;2023-04-04T13:41:16;25.10;29.60
1329;DHT22;658;48.820;9.354;2023-04-04T13:45:17;25.30;29.80
1329;DHT22;658;48.820;9.354;2023-04-04T13:49:18;25.30;29.70
1329;DHT22;658;48.820;9.354;2023-04-04T13:53:19;25.40;29.90
1329;DHT22;658;48.820;9.354;2023-04-04T13:57:20;25.50;30.00
1329;DHT22;658;48.820;9.354;2023-04-04T14:01:21;25.60;30.20
1329;DHT22;658;48.820;9.354;2023-04-04T14:05:22;25.60;30.20
1329;DHT22;658;48.820;9.354;2023-04-04T14:09:25;25.70;30.10
1329;DHT22;658;48.820;9.354;2023-04-04T14:13:29;25.70;30.40
1329;DHT22;658;48.820;9.354;2023-04-04T14:17:32;25.70;30.60
1329;DHT22;658;48.820;9.354;2023-04-04T14:21:35;25.70;30.90
1329;DHT22;658;48.820;9.354;2023-04-04T14:25:40;25.70;30.90
1329;DHT22;658;48.820;9.354;2023-04-04T14:29:42;25.80;31.10
1329;DHT22;658;48.820;9.354;2023-04-04T14:33:42;25.90;31.10
1329;DHT22;658;48.820;9.354;2023-04-04T14:37:43;25.90;31.20
1329;DHT22;658;48.820;9.354;2023-04-04T14:41:46;25.90;31.40
1329;DHT22;658;48.820;9.354;2023-04-04T14:45:47;25.90;31.40
1329;DHT22;658;48.820;9.354;2023-04-04T14:49:48;26.00;31.60
1329;DHT22;658;48.820;9.354;2023-04-04T14:53:48;26.00;31.70
1329;DHT22;658;48.820;9.354;2023-04-04T14:57:54;26.00;31.60
1329;DHT22;658;48.820;9.354;2023-04-04T15:01:56;25.90;31.70
1329;DHT22;658;48.820;9.354;2023-04-04T15:05:59;25.90;31.80
1329;DHT22;658;48.820;9.354;2023-04-04T15:10:03;25.80;31.70
1329;DHT22;658;48.820;9.354;2023-04-04T15:14:06;25.80;31.70
1329;DHT22;658;48.820;9.354;2023-04-04T15:18:07;25.80;31.90
1329;DHT22;658;48.820;9.354;2023-04-04T15:22:07;25.70;31.90
1329;DHT22;658;48.820;9.354;2023-04-04T15:26:08;25.70;31.80
1329;DHT22;658;48.820;9.354;2023-04-04T15:30:09;25.70;31.80
1329;DHT22;658;48.820;9.354;2023-04-04T15:34:09;25.60;31.80
1329;DHT22;658;48.820;9.354;2023-04-04T15:38:12;25.60;31.90
1329;DHT22;658;48.820;9.354;2023-04-04T15:42:13;25.50;31.80
1329;DHT22;658;48.820;9.354;2023-04-04T15:46:13;25.40;31.20
1329;DHT22;658;48.820;9.354;2023-04-04T15:50:14;25.20;30.30
1329;DHT22;658;48.820;9.354;2023-04-04T15:54:14;25.00;29.80
1329;DHT22;658;48.820;9.354;2023-04-04T15:58:18;24.80;29.40
1329;DHT22;658;48.820;9.354;2023-04-04T16:02:19;24.70;29.60
1329;DHT22;658;48.820;9.354;2023-04-04T16:06:19;24.70;30.30
1329;DHT22;658;48.820;9.354;2023-04-04T16:10:20;24.70;30.50
1329;DHT22;658;48.820;9.354;2023-04-04T16:14:21;24.80;30.70
1329;DHT22;658;48.820;9.354;2023-04-04T16:18:24;24.80;30.70
1329;DHT22;658;48.820;9.354;2023-04-04T16:22:25;24.80;30.80
1329;DHT22;658;48.820;9.354;2023-04-04T16:26:27;24.80;30.90
1329;DHT22;658;48.820;9.354;2023-04-04T16:30:28;24.80;30.90
1329;DHT22;658;48.820;9.354;2023-04-04T16:34:31;24.90;31.10
1329;DHT22;658;48.820;9.354;2023-04-04T16:38:32;24.90;31.80
1329;DHT22;658;48.820;9.354;2023-04-04T16:42:34;24.90;31.40
1329;DHT22;658;48.820;9.354;2023-04-04T16:46:37;24.90;31.50
1329;DHT22;658;48.820;9.354;2023-04-04T16:50:41;24.90;32.10
1329;DHT22;658;48.820;9.354;2023-04-04T16:54:43;24.90;31.70
1329;DHT22;658;48.820;9.354;2023-04-04T16:58:45;24.80;31.60
1329;DHT22;658;48.820;9.354;2023-04-04T17:02:46;24.80;31.70
1329;DHT22;658;48.820;9.354;2023-04-04T17:06:47;24.80;31.80
1329;DHT22;658;48.820;9.354;2023-04-04T17:10:48;24.80;31.90
1329;DHT22;658;48.820;9.354;2023-04-04T17:14:51;24.80;31.90
1329;DHT22;658;48.820;9.354;2023-04-04T17:18:52;24.80;31.90
1329;DHT22;658;48.820;9.354;2023-04-04T17:22:55;24.80;32.00
1329;DHT22;658;48.820;9.354;2023-04-04T17:26:55;24.80;32.10
1329;DHT22;658;48.820;9.354;2023-04-04T17:30:57;24.80;32.20
1329;DHT22;658;48.820;9.354;2023-04-04T17:35:01;24.70;32.30
1329;DHT22;658;48.820;9.354;2023-04-04T17:39:05;24.60;32.30
1329;DHT22;658;48.820;9.354;2023-04-04T17:43:07;24.60;32.40
1329;DHT22;658;48.820;9.354;2023-04-04T17:47:08;24.60;32.50
1329;DHT22;658;48.820;9.354;2023-04-04T17:51:09;24.50;32.60
1329;DHT22;658;48.820;9.354;2023-04-04T17:55:10;24.50;34.20
1329;DHT22;658;48.820;9.354;2023-04-04T17:59:13;24.50;35.30
1329;DHT22;658;48.820;9.354;2023-04-04T18:03:18;24.50;34.70
1329;DHT22;658;48.820;9.354;2023-04-04T18:07:22;24.50;34.70
1329;DHT22;658;48.820;9.354;2023-04-04T18:11:25;24.50;35.00
1329;DHT22;658;48.820;9.354;2023-04-04T18:15:26;24.50;34.40
1329;DHT22;658;48.820;9.354;2023-04-04T18:19:27;24.50;34.20
1329;DHT22;658;48.820;9.354;2023-04-04T18:23:28;24.50;34.30
1329;DHT22;658;48.820;9.354;2023-04-04T18:27:28;24.50;34.40
1329;DHT22;658;48.820;9.354;2023-04-04T18:31:30;24.50;34.20
1329;DHT22;658;48.820;9.354;2023-04-04T18:35:31;24.50;34.40
1329;DHT22;658;48.820;9.354;2023-04-04T18:39:31;24.40;34.20
1329;DHT22;658;48.820;9.354;2023-04-04T18:43:32;24.40;34.20
1329;DHT22;658;48.820;9.354;2023-04-04T18:47:39;24.40;34.30
1329;DHT22;658;48.820;9.354;2023-04-04T18:51:44;24.40;34.30
1329;DHT22;658;48.820;9.354;2023-04-04T18:55:45;24.40;34.30
1329;DHT22;658;48.820;9.354;2023-04-04T18:59:48;24.30;34.30
1329;DHT22;658;48.820;9.354;2023-04-04T19:03:49;24.30;34.40
1329;DHT22;658;48.820;9.354;2023-04-04T19:08:06;24.30;34.50
1329;DHT22;658;48.820;9.354;2023-04-04T19:12:27;24.30;34.50
1329;DHT22;658;48.820;9.354;2023-04-04T19:16:40;24.30;34.60
1329;DHT22;658;48.820;9.354;2023-04-04T19:20:45;24.30;34.50
1329;DHT22;658;48.820;9.354;2023-04-04T19:24:49;24.20;34.50
1329;DHT22;658;48.820;9.354;2023-04-04T19:28:51;24.10;34.40
1329;DHT22;658;48.820;9.354;2023-04-04T19:32:51;24.10;34.70
1329;DHT22;658;48.820;9.354;2023-04-04T19:36:54;24.20;34.50
1329;DHT22;658;48.820;9.354;2023-04-04T19:44:59;24.00;34.40
1329;DHT22;658;48.820;9.354;2023-04-04T19:49:13;24.00;34.50
1329;DHT22;658;48.820;9.354;2023-04-04T19:53:20;23.90;34.30
1329;DHT22;658;48.820;9.354;2023-04-04T19:57:21;23.90;34.40
1329;DHT22;658;48.820;9.354;2023-04-04T20:01:24;23.80;34.50
1329;DHT22;658;48.820;9.354;2023-04-04T20:09:34;23.70;34.40
1329;DHT22;658;48.820;9.354;2023-04-04T20:13:42;23.70;34.40
1329;DHT22;658;48.820;9.354;2023-04-04T20:17:43;23.70;34.50
1329;DHT22;658;48.820;9.354;2023-04-04T20:21:44;23.70;35.30
1329;DHT22;658;48.820;9.354;2023-04-04T20:25:47;23.80;35.10
1329;DHT22;658;48.820;9.354;2023-04-04T20:29:51;23.80;34.90
1329;DHT22;658;48.820;9.354;2023-04-04T20:33:52;23.80;34.80
1329;DHT22;658;48.820;9.354;2023-04-04T20:37:52;23.80;34.80
1329;DHT22;658;48.820;9.354;2023-04-04T20:41:54;23.80;34.80
1329;DHT22;658;48.820;9.354;2023-04-04T20:45:55;23.80;34.70
1329;DHT22;658;48.820;9.354;2023-04-04T20:49:58;23.80;34.80
1329;DHT22;658;48.820;9.354;2023-04-04T20:54:02;23.80;34.70
1329;DHT22;658;48.820;9.354;2023-04-04T20:58:06;23.80;34.70
1329;DHT22;658;48.820;9.354;2023-04-04T21:02:10;23.80;34.70
1329;DHT22;658;48.820;9.354;2023-04-04T21:06:13;23.80;34.70
1329;DHT22;658;48.820;9.354;2023-04-04T21:14:25;23.80;34.80
1329;DHT22;658;48.820;9.354;2023-04-04T21:18:29;23.80;34.80
1329;DHT22;658;48.820;9.354;2023-04-04T21:22:31;23.70;34.70
1329;DHT22;658;48.820;9.354;2023-04-04T21:26:33;23.70;34.70
1329;DHT22;658;48.820;9.354;2023-04-04T21:30:44;23.70;34.70
1329;DHT22;658;48.820;9.354;2023-04-04T21:34:45;23.60;34.60
1329;DHT22;658;48.820;9.354;2023-04-04T21:38:46;23.60;34.60
1329;DHT22;658;48.820;9.354;2023-04-04T21:42:47;23.60;34.60
1329;DHT22;658;48.820;9.354;2023-04-04T21:46:48;23.50;34.50
1329;DHT22;658;48.820;9.354;2023-04-04T21:50:49;23.50;34.50
1329;DHT22;658;48.820;9.354;2023-04-04T21:54:52;23.50;34.50
1329;DHT22;658;48.820;9.354;2023-04-04T21:58:59;23.40;34.50
1329;DHT22;658;48.820;9.354;2023-04-04T22:03:04;23.30;34.50
1329;DHT22;658;48.820;9.354;2023-04-04T22:07:07;23.30;34.50
1329;DHT22;658;48.820;9.354;2023-04-04T22:11:11;23.30;34.50
1329;DHT22;658;48.820;9.354;2023-04-04T22:15:19;23.20;34.40
1329;DHT22;658;48.820;9.354;2023-04-04T22:19:32;23.20;34.40
1329;DHT22;658;48.820;9.354;2023-04-04T22:23:42;23.20;34.50
1329;DHT22;658;48.820;9.354;2023-04-04T22:27:46;23.10;34.40
1329;DHT22;658;48.820;9.354;2023-04-04T22:31:48;23.10;34.40
1329;DHT22;658;48.820;9.354;2023-04-04T22:35:51;23.10;34.50
1329;DHT22;658;48.820;9.354;2023-04-04T22:39:54;23.00;34.50
1329;DHT22;658;48.820;9.354;2023-04-04T22:43:58;23.00;34.50
1329;DHT22;658;48.820;9.354;2023-04-04T22:47:58;23.00;34.40
1329;DHT22;658;48.820;9.354;2023-04-04T22:52:03;23.00;34.30
1329;DHT22;658;48.820;9.354;2023-04-04T22:56:12;22.90;34.20
1329;DHT22;658;48.820;9.354;2023-04-04T23:00:14;22.90;34.20
1329;DHT22;658;48.820;9.354;2023-04-04T23:04:14;22.90;34.20
1329;DHT22;658;48.820;9.354;2023-04-04T23:08:15;22.90;34.20
1329;DHT22;658;48.820;9.354;2023-04-04T23:12:18;22.80;34.00
1329;DHT22;658;48.820;9.354;2023-04-04T23:16:21;22.80;34.10
1329;DHT22;658;48.820;9.354;2023-04-04T23:20:25;22.80;34.10
1329;DHT22;658;48.820;9.354;2023-04-04T23:24:27;22.80;34.10
1329;DHT22;658;48.820;9.354;2023-04-04T23:28:28;22.70;34.00
1329;DHT22;658;48.820;9.354;2023-04-04T23:32:31;22.70;34.00
1329;DHT22;658;48.820;9.354;2023-04-04T23:36:31;22.70;34.10
1329;DHT22;658;48.820;9.354;2023-04-04T23:40:34;22.60;33.90
1329;DHT22;658;48.820;9.354;2023-04-04T23:44:37;22.60;33.90
1329;DHT22;658;48.820;9.354;2023-04-04T23:48:38;22.60;33.90
1329;DHT22;658;48.820;9.354;2023-04-04T23:52:39;22.60;34.00
1329;DHT22;658;48.820;9.354;2023-04-04T23:56:42;22.60;33.90
